createdAt,value
2023-04-16T00:00:01.480Z,8.82
2023-04-16T00:01:01.395Z,8.83
2023-04-16T00:02:01.516Z,8.83
2023-04-16T00:03:01.565Z,8.83
2023-04-16T00:04:01.800Z,8.85
2023-04-16T00:05:01.495Z,8.85
2023-04-16T00:06:01.285Z,8.86
2023-04-16T00:07:01.314Z,8.88
2023-04-16T00:08:01.274Z,8.86
2023-04-16T00:09:01.267Z,8.83
2023-04-16T00:10:01.264Z,8.83
2023-04-16T00:11:01.260Z,8.85
2023-04-16T00:12:01.245Z,8.85
2023-04-16T00:13:01.248Z,8.83
2023-04-16T00:14:01.215Z,8.86
2023-04-16T00:15:01.216Z,8.86
2023-04-16T00:16:01.209Z,8.85
2023-04-16T00:17:01.298Z,8.88
2023-04-16T00:18:01.182Z,8.86
2023-04-16T00:19:01.152Z,8.86
2023-04-16T00:20:01.164Z,8.85
2023-04-16T00:21:01.137Z,8.86
2023-04-16T00:22:01.113Z,8.85
2023-04-16T00:23:01.125Z,8.86
2023-04-16T00:24:01.113Z,8.85
2023-04-16T00:25:01.094Z,8.85
2023-04-16T00:26:01.100Z,8.85
2023-04-16T00:27:01.085Z,8.86
2023-04-16T00:28:01.076Z,8.86
2023-04-16T00:29:01.056Z,8.85
2023-04-16T00:30:01.045Z,8.86
2023-04-16T00:31:01.091Z,8.85
2023-04-16T00:32:01.049Z,8.85
2023-04-16T00:33:01.035Z,8.83
2023-04-16T00:34:01.051Z,8.85
2023-04-16T00:35:00.975Z,8.85
2023-04-16T00:36:00.981Z,8.85
2023-04-16T00:37:00.970Z,8.83
2023-04-16T00:38:00.970Z,8.83
2023-04-16T00:39:00.942Z,8.83
2023-04-16T00:40:00.940Z,8.85
2023-04-16T00:41:00.929Z,8.83
2023-04-16T00:42:00.937Z,8.83
2023-04-16T00:43:00.901Z,8.82
2023-04-16T00:44:00.888Z,8.83
2023-04-16T00:45:00.909Z,8.80
2023-04-16T00:46:00.913Z,8.82
2023-04-16T00:47:00.887Z,8.82
2023-04-16T00:48:00.918Z,8.85
2023-04-16T00:49:00.861Z,8.83
2023-04-16T00:50:00.841Z,8.85
2023-04-16T00:51:00.813Z,8.82
2023-04-16T00:52:00.819Z,8.82
2023-04-16T00:53:00.816Z,8.80
2023-04-16T00:54:00.788Z,8.82
2023-04-16T00:55:00.798Z,8.83
2023-04-16T00:56:00.780Z,8.80
2023-04-16T00:57:00.749Z,8.82
2023-04-16T00:58:00.766Z,8.83
2023-04-16T00:59:00.749Z,8.82
2023-04-16T01:00:00.726Z,8.80
2023-04-16T01:01:00.724Z,8.82
2023-04-16T01:02:00.758Z,8.80
2023-04-16T01:03:00.871Z,8.80
2023-04-16T01:04:00.756Z,8.79
2023-04-16T01:05:00.683Z,8.80
2023-04-16T01:06:00.665Z,8.82
2023-04-16T01:07:00.643Z,8.82
2023-04-16T01:08:00.771Z,8.82
2023-04-16T01:09:00.635Z,8.82
2023-04-16T01:10:00.613Z,8.82
2023-04-16T01:11:00.622Z,8.82
2023-04-16T01:12:00.594Z,8.80
2023-04-16T01:13:00.663Z,8.82
2023-04-16T01:14:00.603Z,8.83
2023-04-16T01:15:00.583Z,8.83
2023-04-16T01:16:00.583Z,8.79
2023-04-16T01:17:00.534Z,8.80
2023-04-16T01:18:00.583Z,8.80
2023-04-16T01:19:00.525Z,8.79
2023-04-16T01:20:00.536Z,8.80
2023-04-16T01:21:00.497Z,8.80
2023-04-16T01:22:00.502Z,8.82
2023-04-16T01:23:00.503Z,8.83
2023-04-16T01:24:00.478Z,8.82
2023-04-16T01:25:00.465Z,8.80
2023-04-16T01:26:00.462Z,8.80
2023-04-16T01:27:00.441Z,8.79
2023-04-16T01:28:00.449Z,8.80
2023-04-16T01:29:00.474Z,8.82
2023-04-16T01:30:00.412Z,8.82
2023-04-16T01:31:00.441Z,8.82
2023-04-16T01:32:00.382Z,8.82
2023-04-16T01:33:00.452Z,8.80
2023-04-16T01:34:00.396Z,8.82
2023-04-16T01:35:00.335Z,8.82
2023-04-16T01:36:00.337Z,8.80
2023-04-16T01:37:00.325Z,8.82
2023-04-16T01:38:00.317Z,8.83
2023-04-16T01:39:00.326Z,8.85
2023-04-16T01:40:00.301Z,8.85
2023-04-16T01:41:00.290Z,8.85
2023-04-16T01:42:00.297Z,8.88
2023-04-16T01:43:00.273Z,8.86
2023-04-16T01:44:00.296Z,8.88
2023-04-16T01:45:00.240Z,8.85
2023-04-16T01:46:00.237Z,8.85
2023-04-16T01:47:00.387Z,8.85
2023-04-16T01:48:00.282Z,8.85
2023-04-16T01:49:00.206Z,8.82
2023-04-16T01:50:00.219Z,8.82
2023-04-16T01:51:00.182Z,8.82
2023-04-16T01:52:00.199Z,8.80
2023-04-16T01:53:00.156Z,8.80
2023-04-16T01:54:00.172Z,8.80
2023-04-16T01:55:00.178Z,8.82
2023-04-16T01:56:00.162Z,8.80
2023-04-16T01:57:00.110Z,8.79
2023-04-16T01:58:00.120Z,8.80
2023-04-16T01:59:00.121Z,8.80
2023-04-16T02:00:00.096Z,8.78
2023-04-16T02:01:00.099Z,8.78
2023-04-16T02:02:00.127Z,8.76
2023-04-16T02:03:00.383Z,8.78
2023-04-16T02:04:00.295Z,8.76
2023-04-16T02:05:00.039Z,8.76
2023-04-16T02:06:00.017Z,8.78
2023-04-16T02:06:59.999Z,8.78
2023-04-16T02:08:00.011Z,8.78
2023-04-16T02:09:00.010Z,8.76
2023-04-16T02:09:59.990Z,8.78
2023-04-16T02:10:59.975Z,8.76
2023-04-16T02:11:59.976Z,8.78
2023-04-16T02:12:59.952Z,8.76
2023-04-16T02:13:59.938Z,8.78
2023-04-16T02:14:59.937Z,8.79
2023-04-16T02:15:59.972Z,8.78
2023-04-16T02:16:59.899Z,8.78
2023-04-16T02:17:59.954Z,8.79
2023-04-16T02:18:59.881Z,8.78
2023-04-16T02:19:59.881Z,8.79
2023-04-16T02:20:59.863Z,8.79
2023-04-16T02:21:59.840Z,8.82
2023-04-16T02:22:59.847Z,8.80
2023-04-16T02:23:59.822Z,8.80
2023-04-16T02:24:59.814Z,8.79
2023-04-16T02:25:59.810Z,8.79
2023-04-16T02:26:59.800Z,8.79
2023-04-16T02:27:59.793Z,8.78
2023-04-16T02:28:59.768Z,8.79
2023-04-16T02:29:59.754Z,8.80
2023-04-16T02:30:59.782Z,8.79
2023-04-16T02:31:59.814Z,8.79
2023-04-16T02:32:59.796Z,8.79
2023-04-16T02:33:59.738Z,8.79
2023-04-16T02:34:59.696Z,8.78
2023-04-16T02:35:59.716Z,8.78
2023-04-16T02:36:59.688Z,8.79
2023-04-16T02:37:59.673Z,8.78
2023-04-16T02:38:59.672Z,8.78
2023-04-16T02:39:59.674Z,8.78
2023-04-16T02:40:59.645Z,8.76
2023-04-16T02:41:59.640Z,8.78
2023-04-16T02:42:59.617Z,8.78
2023-04-16T02:43:59.630Z,8.78
2023-04-16T02:44:59.602Z,8.78
2023-04-16T02:45:59.651Z,8.79
2023-04-16T02:46:59.591Z,8.76
2023-04-16T02:47:59.602Z,8.76
2023-04-16T02:48:59.572Z,8.78
2023-04-16T02:49:59.550Z,8.76
2023-04-16T02:50:59.530Z,8.79
2023-04-16T02:51:59.532Z,8.76
2023-04-16T02:52:59.534Z,8.76
2023-04-16T02:53:59.515Z,8.75
2023-04-16T02:54:59.514Z,8.76
2023-04-16T02:55:59.482Z,8.78
2023-04-16T02:56:59.481Z,8.78
2023-04-16T02:57:59.479Z,8.79
2023-04-16T02:58:59.451Z,8.80
2023-04-16T02:59:59.471Z,8.78
2023-04-16T03:00:59.495Z,8.78
2023-04-16T03:01:59.513Z,8.78
2023-04-16T03:02:59.510Z,8.80
2023-04-16T03:03:59.432Z,8.79
2023-04-16T03:04:59.417Z,8.79
2023-04-16T03:05:59.392Z,8.79
2023-04-16T03:06:59.365Z,8.78
2023-04-16T03:07:59.360Z,8.76
2023-04-16T03:08:59.354Z,8.78
2023-04-16T03:09:59.333Z,8.78
2023-04-16T03:10:59.337Z,8.76
2023-04-16T03:11:59.330Z,8.76
2023-04-16T03:12:59.307Z,8.75
2023-04-16T03:13:59.305Z,8.75
2023-04-16T03:14:59.288Z,8.75
2023-04-16T03:15:59.333Z,8.78
2023-04-16T03:16:59.259Z,8.75
2023-04-16T03:17:59.312Z,8.75
2023-04-16T03:18:59.244Z,8.76
2023-04-16T03:19:59.238Z,8.76
2023-04-16T03:20:59.226Z,8.78
2023-04-16T03:21:59.202Z,8.76
2023-04-16T03:22:59.205Z,8.75
2023-04-16T03:23:59.218Z,8.75
2023-04-16T03:24:59.176Z,8.73
2023-04-16T03:25:59.178Z,8.75
2023-04-16T03:26:59.158Z,8.73
2023-04-16T03:27:59.187Z,8.73
2023-04-16T03:28:59.134Z,8.71
2023-04-16T03:29:59.133Z,8.71
2023-04-16T03:30:59.250Z,8.71
2023-04-16T03:31:59.112Z,8.71
2023-04-16T03:32:59.110Z,8.70
2023-04-16T03:33:59.111Z,8.71
2023-04-16T03:34:59.069Z,8.71
2023-04-16T03:35:59.072Z,8.71
2023-04-16T03:36:59.057Z,8.71
2023-04-16T03:37:59.064Z,8.70
2023-04-16T03:38:59.027Z,8.73
2023-04-16T03:39:59.029Z,8.73
2023-04-16T03:40:59.001Z,8.73
2023-04-16T03:41:59.013Z,8.73
2023-04-16T03:42:59.019Z,8.73
2023-04-16T03:43:58.990Z,8.75
2023-04-16T03:44:58.970Z,8.75
2023-04-16T03:45:58.954Z,8.75
2023-04-16T03:46:59.095Z,8.75
2023-04-16T03:47:59.083Z,8.76
2023-04-16T03:48:58.939Z,8.76
2023-04-16T03:49:58.919Z,8.76
2023-04-16T03:50:58.886Z,8.75
2023-04-16T03:51:58.901Z,8.73
2023-04-16T03:52:58.891Z,8.75
2023-04-16T03:53:58.884Z,8.75
2023-04-16T03:54:58.879Z,8.73
2023-04-16T03:55:58.843Z,8.73
2023-04-16T03:56:58.854Z,8.73
2023-04-16T03:57:58.831Z,8.75
2023-04-16T03:58:58.806Z,8.73
2023-04-16T03:59:58.818Z,8.73
2023-04-16T04:00:58.821Z,8.73
2023-04-16T04:01:58.944Z,8.73
2023-04-16T04:02:58.931Z,8.73
2023-04-16T04:03:58.991Z,8.76
2023-04-16T04:04:58.808Z,8.75
2023-04-16T04:05:58.748Z,8.73
2023-04-16T04:06:58.750Z,8.75
2023-04-16T04:07:58.717Z,8.71
2023-04-16T04:08:58.715Z,8.73
2023-04-16T04:09:58.708Z,8.73
2023-04-16T04:10:58.707Z,8.73
2023-04-16T04:11:58.668Z,8.73
2023-04-16T04:12:58.683Z,8.73
2023-04-16T04:13:58.669Z,8.75
2023-04-16T04:14:58.667Z,8.75
2023-04-16T04:15:58.714Z,8.73
2023-04-16T04:16:58.616Z,8.73
2023-04-16T04:17:58.683Z,8.71
2023-04-16T04:18:58.615Z,8.71
2023-04-16T04:20:01.345Z,8.71
2023-04-16T04:20:58.628Z,8.71
2023-04-16T04:21:58.586Z,8.71
2023-04-16T04:22:58.569Z,8.73
2023-04-16T04:23:58.544Z,8.73
2023-04-16T04:24:58.551Z,8.75
2023-04-16T04:25:58.590Z,8.73
2023-04-16T04:26:58.530Z,8.76
2023-04-16T04:27:58.506Z,8.76
2023-04-16T04:28:58.506Z,8.76
2023-04-16T04:29:58.484Z,8.79
2023-04-16T04:30:58.491Z,8.76
2023-04-16T04:31:58.515Z,8.76
2023-04-16T04:32:58.527Z,8.75
2023-04-16T04:33:58.467Z,8.75
2023-04-16T04:34:58.463Z,8.76
2023-04-16T04:35:58.451Z,8.75
2023-04-16T04:36:58.424Z,8.73
2023-04-16T04:37:58.405Z,8.70
2023-04-16T04:38:58.412Z,8.71
2023-04-16T04:39:58.394Z,8.71
2023-04-16T04:40:58.389Z,8.75
2023-04-16T04:41:58.407Z,8.75
2023-04-16T04:42:58.360Z,8.75
2023-04-16T04:43:58.337Z,8.75
2023-04-16T04:44:58.315Z,8.75
2023-04-16T04:45:58.342Z,8.76
2023-04-16T04:46:58.327Z,8.75
2023-04-16T04:47:58.315Z,8.76
2023-04-16T04:48:58.296Z,8.76
2023-04-16T04:49:58.276Z,8.75
2023-04-16T04:50:58.271Z,8.78
2023-04-16T04:51:58.260Z,8.76
2023-04-16T04:52:58.254Z,8.76
2023-04-16T04:53:58.230Z,8.76
2023-04-16T04:54:58.249Z,8.75
2023-04-16T04:56:05.493Z,8.76
2023-04-16T04:56:59.211Z,8.76
2023-04-16T04:57:58.183Z,8.75
2023-04-16T04:58:58.183Z,8.75
2023-04-16T04:59:58.235Z,8.75
2023-04-16T05:00:58.216Z,8.73
2023-04-16T05:01:58.188Z,8.73
2023-04-16T05:02:58.219Z,8.71
2023-04-16T05:03:58.194Z,8.71
2023-04-16T05:04:58.181Z,8.73
2023-04-16T05:05:58.106Z,8.73
2023-04-16T05:06:58.112Z,8.75
2023-04-16T05:07:58.092Z,8.75
2023-04-16T05:08:58.081Z,8.73
2023-04-16T05:09:58.085Z,8.75
2023-04-16T05:10:58.062Z,8.75
2023-04-16T05:11:58.033Z,8.71
2023-04-16T05:12:58.043Z,8.70
2023-04-16T05:13:58.052Z,8.71
2023-04-16T05:14:58.006Z,8.71
2023-04-16T05:15:58.005Z,8.70
2023-04-16T05:16:58.066Z,8.71
2023-04-16T05:17:58.060Z,8.70
2023-04-16T05:18:58.004Z,8.73
2023-04-16T05:19:57.950Z,8.73
2023-04-16T05:20:58.685Z,8.71
2023-04-16T05:21:58.204Z,8.71
2023-04-16T05:22:58.983Z,8.70
2023-04-16T05:23:57.922Z,8.71
2023-04-16T05:24:58.626Z,8.70
2023-04-16T05:25:57.910Z,8.71
2023-04-16T05:26:58.612Z,8.70
2023-04-16T05:27:57.950Z,8.70
2023-04-16T05:28:57.868Z,8.73
2023-04-16T05:29:57.853Z,8.73
2023-04-16T05:30:57.884Z,8.73
2023-04-16T05:31:57.848Z,8.73
2023-04-16T05:32:57.892Z,8.71
2023-04-16T05:33:57.798Z,8.70
2023-04-16T05:34:57.827Z,8.71
2023-04-16T05:35:57.783Z,8.71
2023-04-16T05:36:57.783Z,8.71
2023-04-16T05:37:57.767Z,8.71
2023-04-16T05:38:57.759Z,8.71
2023-04-16T05:39:57.742Z,8.71
2023-04-16T05:40:57.739Z,8.71
2023-04-16T05:41:57.716Z,8.70
2023-04-16T05:42:57.735Z,8.70
2023-04-16T05:43:57.699Z,8.68
2023-04-16T05:44:57.698Z,8.70
2023-04-16T05:45:57.775Z,8.70
2023-04-16T05:46:57.680Z,8.71
2023-04-16T05:47:57.754Z,8.71
2023-04-16T05:48:57.651Z,8.70
2023-04-16T05:49:57.625Z,8.70
2023-04-16T05:50:58.625Z,8.70
2023-04-16T05:51:57.623Z,8.67
2023-04-16T05:52:58.303Z,8.68
2023-04-16T05:53:57.652Z,8.71
2023-04-16T05:54:58.606Z,8.68
2023-04-16T05:55:57.691Z,8.70
2023-04-16T05:56:58.288Z,8.70
2023-04-16T05:57:57.572Z,8.70
2023-04-16T05:58:57.662Z,8.71
2023-04-16T05:59:57.547Z,8.68
2023-04-16T06:00:58.262Z,8.70
2023-04-16T06:01:57.571Z,8.71
2023-04-16T06:02:57.700Z,8.71
2023-04-16T06:03:57.595Z,8.73
2023-04-16T06:04:58.096Z,8.73
2023-04-16T06:05:57.581Z,8.71
2023-04-16T06:06:57.455Z,8.73
2023-04-16T06:07:57.448Z,8.71
2023-04-16T06:08:57.447Z,8.75
2023-04-16T06:09:57.436Z,8.73
2023-04-16T06:10:57.441Z,8.75
2023-04-16T06:11:57.394Z,8.75
2023-04-16T06:12:57.389Z,8.73
2023-04-16T06:13:57.397Z,8.75
2023-04-16T06:14:57.375Z,8.73
2023-04-16T06:15:57.411Z,8.75
2023-04-16T06:16:57.361Z,8.76
2023-04-16T06:17:59.449Z,8.79
2023-04-16T06:18:57.337Z,8.80
2023-04-16T06:19:57.329Z,8.78
2023-04-16T06:20:57.308Z,8.78
2023-04-16T06:21:57.310Z,8.78
2023-04-16T06:22:57.282Z,8.80
2023-04-16T06:23:57.345Z,8.80
2023-04-16T06:24:57.282Z,8.83
2023-04-16T06:25:57.982Z,8.82
2023-04-16T06:26:57.270Z,8.79
2023-04-16T06:27:57.931Z,8.80
2023-04-16T06:28:57.279Z,8.83
2023-04-16T06:29:58.246Z,8.82
2023-04-16T06:30:57.241Z,8.82
2023-04-16T06:31:57.363Z,8.80
2023-04-16T06:32:57.220Z,8.82
2023-04-16T06:33:57.896Z,8.82
2023-04-16T06:34:57.183Z,8.82
2023-04-16T06:35:57.850Z,8.83
2023-04-16T06:36:57.172Z,8.83
2023-04-16T06:37:57.188Z,8.85
2023-04-16T06:38:57.132Z,8.86
2023-04-16T06:39:57.157Z,8.86
2023-04-16T06:40:57.111Z,8.88
2023-04-16T06:41:57.224Z,8.89
2023-04-16T06:42:57.115Z,8.89
2023-04-16T06:43:57.082Z,8.89
2023-04-16T06:44:57.077Z,8.89
2023-04-16T06:45:57.768Z,8.91
2023-04-16T06:46:57.121Z,8.89
2023-04-16T06:47:57.818Z,8.91
2023-04-16T06:48:57.104Z,8.89
2023-04-16T06:49:57.733Z,8.89
2023-04-16T06:50:57.042Z,8.91
2023-04-16T06:51:57.714Z,8.93
2023-04-16T06:52:56.999Z,8.96
2023-04-16T06:53:57.664Z,8.96
2023-04-16T06:54:57.021Z,8.98
2023-04-16T06:55:56.964Z,8.96
2023-04-16T06:56:56.955Z,8.98
2023-04-16T06:57:57.659Z,8.96
2023-04-16T06:58:56.910Z,8.96
2023-04-16T06:59:57.619Z,8.94
2023-04-16T07:00:56.941Z,8.94
2023-04-16T07:01:57.106Z,8.94
2023-04-16T07:02:58.640Z,8.96
2023-04-16T07:03:57.754Z,8.97
2023-04-16T07:04:56.853Z,8.97
2023-04-16T07:05:56.870Z,8.98
2023-04-16T07:06:56.832Z,8.97
2023-04-16T07:07:56.842Z,8.98
2023-04-16T07:08:56.815Z,9.01
2023-04-16T07:09:57.038Z,9.01
2023-04-16T07:10:56.800Z,9.06
2023-04-16T07:11:56.767Z,9.06
2023-04-16T07:12:56.770Z,9.10
2023-04-16T07:13:56.755Z,9.13
2023-04-16T07:14:56.725Z,9.15
2023-04-16T07:15:56.749Z,9.15
2023-04-16T07:16:56.746Z,9.15
2023-04-16T07:17:56.747Z,9.13
2023-04-16T07:18:56.682Z,9.13
2023-04-16T07:19:56.685Z,9.16
2023-04-16T07:20:56.693Z,9.15
2023-04-16T07:21:56.704Z,9.19
2023-04-16T07:22:56.644Z,9.20
2023-04-16T07:23:56.664Z,9.20
2023-04-16T07:24:56.629Z,9.23
2023-04-16T07:25:56.650Z,9.23
2023-04-16T07:26:56.615Z,9.24
2023-04-16T07:27:56.601Z,9.22
2023-04-16T07:28:56.588Z,9.22
2023-04-16T07:29:56.594Z,9.20
2023-04-16T07:30:56.566Z,9.19
2023-04-16T07:31:56.623Z,9.17
2023-04-16T07:32:56.751Z,9.16
2023-04-16T07:33:56.571Z,9.19
2023-04-16T07:34:56.543Z,9.19
2023-04-16T07:35:56.515Z,9.20
2023-04-16T07:36:56.607Z,9.17
2023-04-16T07:37:56.519Z,9.20
2023-04-16T07:38:57.551Z,9.20
2023-04-16T07:39:57.353Z,9.19
2023-04-16T07:40:57.158Z,9.19
2023-04-16T07:41:56.496Z,9.15
2023-04-16T07:42:57.494Z,9.17
2023-04-16T07:43:56.469Z,9.16
2023-04-16T07:44:57.149Z,9.19
2023-04-16T07:45:56.548Z,9.19
2023-04-16T07:46:57.205Z,9.19
2023-04-16T07:47:56.577Z,9.17
2023-04-16T07:48:56.725Z,9.17
2023-04-16T07:49:56.402Z,9.16
2023-04-16T07:50:57.054Z,9.16
2023-04-16T07:51:56.458Z,9.17
2023-04-16T07:52:57.073Z,9.17
2023-04-16T07:53:56.369Z,9.19
2023-04-16T07:54:56.332Z,9.19
2023-04-16T07:55:56.308Z,9.19
2023-04-16T07:56:56.392Z,9.22
2023-04-16T07:57:56.275Z,9.24
2023-04-16T07:58:56.287Z,9.30
2023-04-16T07:59:56.253Z,9.26
2023-04-16T08:00:56.259Z,9.27
2023-04-16T08:01:56.287Z,9.30
2023-04-16T08:02:56.382Z,9.30
2023-04-16T08:03:56.376Z,9.27
2023-04-16T08:04:56.368Z,9.27
2023-04-16T08:05:56.249Z,9.26
2023-04-16T08:06:56.266Z,9.22
2023-04-16T08:07:56.213Z,9.23
2023-04-16T08:08:56.168Z,9.22
2023-04-16T08:09:56.179Z,9.22
2023-04-16T08:10:57.116Z,9.22
2023-04-16T08:11:56.167Z,9.23
2023-04-16T08:12:56.856Z,9.24
2023-04-16T08:13:56.141Z,9.22
2023-04-16T08:14:56.113Z,9.23
2023-04-16T08:15:56.148Z,9.23
2023-04-16T08:16:56.805Z,9.23
2023-04-16T08:17:56.132Z,9.23
2023-04-16T08:18:56.129Z,9.24
2023-04-16T08:19:56.057Z,9.24
2023-04-16T08:20:56.048Z,9.27
2023-04-16T08:21:56.049Z,9.27
2023-04-16T08:22:56.078Z,9.30
2023-04-16T08:23:56.011Z,9.32
2023-04-16T08:24:56.043Z,9.34
2023-04-16T08:25:55.980Z,9.32
2023-04-16T08:27:02.419Z,9.31
2023-04-16T08:27:56.993Z,9.34
2023-04-16T08:28:55.979Z,9.35
2023-04-16T08:29:56.071Z,9.32
2023-04-16T08:30:55.974Z,9.31
2023-04-16T08:31:56.003Z,9.30
2023-04-16T08:32:55.987Z,9.31
2023-04-16T08:33:55.903Z,9.34
2023-04-16T08:34:55.896Z,9.35
2023-04-16T08:35:55.919Z,9.38
2023-04-16T08:36:55.873Z,9.35
2023-04-16T08:37:55.867Z,9.34
2023-04-16T08:38:55.882Z,9.37
2023-04-16T08:39:55.888Z,9.35
2023-04-16T08:40:55.818Z,9.37
2023-04-16T08:41:55.816Z,9.35
2023-04-16T08:42:55.848Z,9.34
2023-04-16T08:43:55.806Z,9.37
2023-04-16T08:44:55.792Z,9.40
2023-04-16T08:45:55.789Z,9.40
2023-04-16T08:46:55.772Z,9.42
2023-04-16T08:47:55.817Z,9.42
2023-04-16T08:48:55.733Z,9.44
2023-04-16T08:49:58.319Z,9.45
2023-04-16T08:50:55.794Z,9.48
2023-04-16T08:51:55.729Z,9.48
2023-04-16T08:52:55.710Z,9.49
2023-04-16T08:53:56.690Z,9.49
2023-04-16T08:54:56.744Z,9.50
2023-04-16T08:55:56.361Z,9.55
2023-04-16T08:56:55.678Z,9.55
2023-04-16T08:57:56.662Z,9.56
2023-04-16T08:58:55.659Z,9.58
2023-04-16T08:59:56.352Z,9.60
2023-04-16T09:00:55.711Z,9.63
2023-04-16T09:01:56.403Z,9.65
2023-04-16T09:02:55.821Z,9.71
2023-04-16T09:03:56.421Z,9.75
2023-04-16T09:04:55.691Z,9.78
2023-04-16T09:05:56.380Z,9.80
2023-04-16T09:06:55.543Z,9.80
2023-04-16T09:07:55.578Z,9.81
2023-04-16T09:08:55.548Z,9.83
2023-04-16T09:09:55.829Z,9.86
2023-04-16T09:10:55.523Z,9.83
2023-04-16T09:11:55.517Z,9.83
2023-04-16T09:12:55.486Z,9.83
2023-04-16T09:13:55.520Z,9.81
2023-04-16T09:14:55.475Z,9.81
2023-04-16T09:15:55.588Z,9.83
2023-04-16T09:16:55.438Z,9.88
2023-04-16T09:17:55.467Z,9.89
2023-04-16T09:18:55.453Z,9.92
2023-04-16T09:19:55.410Z,9.95
2023-04-16T09:20:55.410Z,9.93
2023-04-16T09:21:55.405Z,9.95
2023-04-16T09:22:55.405Z,9.96
2023-04-16T09:23:55.437Z,9.95
2023-04-16T09:24:55.354Z,9.95
2023-04-16T09:25:55.381Z,9.95
2023-04-16T09:26:55.365Z,9.93
2023-04-16T09:27:55.349Z,9.95
2023-04-16T09:28:55.343Z,9.95
2023-04-16T09:29:55.376Z,9.92
2023-04-16T09:30:55.304Z,9.93
2023-04-16T09:31:55.315Z,9.95
2023-04-16T09:32:55.337Z,9.95
2023-04-16T09:33:55.263Z,9.96
2023-04-16T09:34:55.254Z,9.95
2023-04-16T09:35:55.276Z,9.89
2023-04-16T09:36:55.275Z,9.89
2023-04-16T09:37:55.456Z,9.91
2023-04-16T09:38:57.575Z,9.92
2023-04-16T09:39:55.260Z,9.92
2023-04-16T09:40:55.228Z,9.89
2023-04-16T09:41:55.191Z,9.88
2023-04-16T09:42:55.294Z,9.91
2023-04-16T09:43:55.159Z,9.91
2023-04-16T09:44:56.283Z,9.91
2023-04-16T09:45:55.261Z,9.89
2023-04-16T09:46:55.133Z,9.86
2023-04-16T09:47:55.182Z,9.81
2023-04-16T09:48:55.107Z,9.80
2023-04-16T09:49:55.135Z,9.80
2023-04-16T09:50:55.083Z,9.80
2023-04-16T09:51:55.098Z,9.77
2023-04-16T09:52:55.073Z,9.78
2023-04-16T09:53:55.045Z,9.75
2023-04-16T09:54:55.040Z,9.78
2023-04-16T09:55:55.041Z,9.81
2023-04-16T09:56:55.007Z,9.81
2023-04-16T09:57:55.276Z,9.80
2023-04-16T09:58:54.998Z,9.78
2023-04-16T09:59:54.988Z,9.77
2023-04-16T10:00:54.994Z,9.77
2023-04-16T10:02:12.287Z,9.74
2023-04-16T10:02:56.043Z,9.74
2023-04-16T10:03:55.112Z,9.78
2023-04-16T10:04:55.781Z,9.78
2023-04-16T10:05:54.940Z,9.77
2023-04-16T10:06:55.617Z,9.78
2023-04-16T10:07:54.937Z,9.80
2023-04-16T10:08:56.367Z,9.80
2023-04-16T10:09:54.935Z,9.77
2023-04-16T10:10:55.634Z,9.78
2023-04-16T10:11:54.871Z,9.83
2023-04-16T10:12:55.229Z,9.81
2023-04-16T10:13:54.877Z,9.83
2023-04-16T10:14:55.832Z,9.85
2023-04-16T10:15:54.843Z,9.83
2023-04-16T10:16:55.725Z,9.85
2023-04-16T10:17:54.812Z,9.89
2023-04-16T10:18:55.081Z,9.88
2023-04-16T10:19:54.794Z,9.92
2023-04-16T10:20:54.785Z,9.95
2023-04-16T10:21:54.765Z,10.02
2023-04-16T10:22:54.752Z,10.02
2023-04-16T10:23:54.737Z,10.04
2023-04-16T10:24:54.710Z,10.02
2023-04-16T10:25:56.961Z,10.07
2023-04-16T10:26:54.720Z,10.09
2023-04-16T10:27:54.707Z,10.13
2023-04-16T10:28:54.686Z,10.16
2023-04-16T10:29:54.713Z,10.11
2023-04-16T10:30:54.736Z,10.13
2023-04-16T10:31:54.693Z,10.10
2023-04-16T10:32:54.712Z,10.13
2023-04-16T10:33:54.623Z,10.16
2023-04-16T10:34:54.895Z,10.13
2023-04-16T10:36:04.949Z,10.11
2023-04-16T10:36:55.578Z,10.13
2023-04-16T10:37:54.595Z,10.13
2023-04-16T10:38:54.583Z,10.13
2023-04-16T10:39:54.585Z,10.11
2023-04-16T10:40:54.540Z,10.13
2023-04-16T10:41:54.541Z,10.11
2023-04-16T10:42:54.561Z,10.13
2023-04-16T10:43:54.528Z,10.11
2023-04-16T10:44:54.503Z,10.10
2023-04-16T10:45:54.534Z,10.13
2023-04-16T10:46:54.482Z,10.16
2023-04-16T10:47:54.540Z,10.11
2023-04-16T10:48:54.737Z,10.11
2023-04-16T10:49:54.459Z,10.13
2023-04-16T10:50:54.457Z,10.14
2023-04-16T10:51:54.432Z,10.13
2023-04-16T10:52:54.438Z,10.11
2023-04-16T10:53:54.426Z,10.13
2023-04-16T10:54:54.407Z,10.16
2023-04-16T10:55:54.417Z,10.14
2023-04-16T10:56:54.376Z,10.16
2023-04-16T10:57:54.362Z,10.10
2023-04-16T10:58:54.344Z,10.14
2023-04-16T10:59:54.356Z,10.16
2023-04-16T11:00:54.340Z,10.18
2023-04-16T11:01:54.442Z,10.20
2023-04-16T11:02:54.428Z,10.20
2023-04-16T11:03:54.515Z,10.14
2023-04-16T11:04:54.395Z,10.14
2023-04-16T11:05:54.279Z,10.14
2023-04-16T11:06:54.259Z,10.14
2023-04-16T11:07:54.252Z,10.16
2023-04-16T11:08:55.385Z,10.20
2023-04-16T11:09:54.258Z,10.17
2023-04-16T11:10:54.226Z,10.13
2023-04-16T11:11:54.242Z,10.11
2023-04-16T11:12:54.218Z,10.10
2023-04-16T11:13:54.692Z,10.11
2023-04-16T11:14:54.199Z,10.07
2023-04-16T11:15:54.206Z,10.04
2023-04-16T11:16:54.176Z,10.06
2023-04-16T11:17:54.196Z,10.07
2023-04-16T11:18:56.319Z,10.02
2023-04-16T11:19:55.152Z,10.02
2023-04-16T11:20:54.144Z,10.01
2023-04-16T11:21:54.307Z,9.99
2023-04-16T11:22:54.120Z,9.99
2023-04-16T11:23:54.263Z,10.02
2023-04-16T11:24:54.154Z,9.99
2023-04-16T11:25:55.642Z,10.01
2023-04-16T11:26:54.073Z,9.98
2023-04-16T11:27:54.160Z,9.98
2023-04-16T11:28:54.052Z,9.99
2023-04-16T11:29:54.010Z,10.02
2023-04-16T11:30:54.002Z,10.01
2023-04-16T11:31:54.059Z,10.02
2023-04-16T11:32:54.022Z,10.02
2023-04-16T11:33:53.977Z,10.01
2023-04-16T11:34:53.961Z,9.98
2023-04-16T11:35:54.016Z,9.96
2023-04-16T11:36:53.961Z,9.99
2023-04-16T11:37:53.952Z,10.01
2023-04-16T11:38:53.915Z,10.02
2023-04-16T11:39:53.914Z,9.99
2023-04-16T11:40:54.002Z,10.01
2023-04-16T11:41:54.123Z,10.02
2023-04-16T11:42:53.879Z,10.02
2023-04-16T11:43:53.857Z,9.99
2023-04-16T11:44:53.856Z,10.01
2023-04-16T11:45:53.854Z,10.04
2023-04-16T11:46:53.888Z,10.06
2023-04-16T11:47:53.836Z,10.04
2023-04-16T11:48:53.828Z,10.02
2023-04-16T11:49:53.805Z,9.99
2023-04-16T11:50:53.788Z,10.02
2023-04-16T11:51:53.806Z,9.99
2023-04-16T11:52:53.788Z,10.01
2023-04-16T11:53:53.770Z,10.06
2023-04-16T11:54:53.765Z,10.07
2023-04-16T11:55:53.742Z,10.07
2023-04-16T11:56:53.796Z,10.07
2023-04-16T11:57:53.733Z,10.07
2023-04-16T11:58:53.704Z,10.11
2023-04-16T12:00:02.315Z,10.14
2023-04-16T12:00:54.685Z,10.16
2023-04-16T12:01:53.725Z,10.16
2023-04-16T12:02:54.051Z,10.16
2023-04-16T12:03:53.933Z,10.18
2023-04-16T12:04:53.717Z,10.20
2023-04-16T12:05:53.627Z,10.20
2023-04-16T12:06:53.621Z,10.24
2023-04-16T12:07:53.625Z,10.22
2023-04-16T12:08:53.610Z,10.25
2023-04-16T12:09:53.607Z,10.24
2023-04-16T12:10:53.596Z,10.18
2023-04-16T12:11:53.572Z,10.17
2023-04-16T12:12:53.589Z,10.16
2023-04-16T12:13:53.567Z,10.16
2023-04-16T12:14:53.533Z,10.17
2023-04-16T12:15:53.535Z,10.17
2023-04-16T12:16:53.577Z,10.17
2023-04-16T12:17:53.565Z,10.16
2023-04-16T12:18:53.501Z,10.16
2023-04-16T12:19:53.517Z,10.17
2023-04-16T12:20:53.512Z,10.18
2023-04-16T12:21:53.461Z,10.18
2023-04-16T12:22:53.457Z,10.18
2023-04-16T12:23:53.454Z,10.24
2023-04-16T12:24:53.446Z,10.25
2023-04-16T12:25:53.459Z,10.26
2023-04-16T12:26:53.407Z,10.25
2023-04-16T12:27:54.197Z,10.25
2023-04-16T12:28:53.383Z,10.25
2023-04-16T12:29:53.365Z,10.24
2023-04-16T12:30:53.405Z,10.24
2023-04-16T12:31:53.376Z,10.25
2023-04-16T12:32:53.436Z,10.24
2023-04-16T12:33:53.344Z,10.24
2023-04-16T12:34:53.333Z,10.24
2023-04-16T12:35:53.339Z,10.25
2023-04-16T12:36:53.298Z,10.25
2023-04-16T12:37:53.304Z,10.26
2023-04-16T12:38:53.313Z,10.31
2023-04-16T12:39:53.274Z,10.35
2023-04-16T12:40:53.273Z,10.38
2023-04-16T12:41:53.260Z,10.38
2023-04-16T12:42:53.251Z,10.36
2023-04-16T12:43:53.238Z,10.34
2023-04-16T12:44:53.211Z,10.32
2023-04-16T12:45:53.365Z,10.32
2023-04-16T12:46:53.216Z,10.36
2023-04-16T12:47:53.252Z,10.36
2023-04-16T12:48:53.204Z,10.35
2023-04-16T12:49:53.154Z,10.34
2023-04-16T12:50:53.167Z,10.32
2023-04-16T12:51:53.163Z,10.32
2023-04-16T12:52:53.122Z,10.31
2023-04-16T12:53:53.116Z,10.31
2023-04-16T12:54:53.271Z,10.29
2023-04-16T12:55:53.118Z,10.29
2023-04-16T12:56:53.085Z,10.31
2023-04-16T12:57:53.132Z,10.35
2023-04-16T12:58:53.108Z,10.35
2023-04-16T12:59:53.075Z,10.36
2023-04-16T13:00:53.060Z,10.38
2023-04-16T13:01:53.214Z,10.36
2023-04-16T13:02:53.215Z,10.32
2023-04-16T13:03:53.233Z,10.32
2023-04-16T13:04:53.008Z,10.31
2023-04-16T13:05:53.025Z,10.29
2023-04-16T13:06:52.984Z,10.28
2023-04-16T13:07:52.966Z,10.28
2023-04-16T13:08:52.951Z,10.28
2023-04-16T13:09:52.969Z,10.26
2023-04-16T13:10:52.978Z,10.26
2023-04-16T13:11:52.929Z,10.28
2023-04-16T13:12:52.949Z,10.28